Time;durP1;ratioP1;P1;durP2;ratioP2;P2;SDS_P1;SDS_P2;PMS_P1;PMS_P2;Temp;Humidity;BMP_temperature;BMP_pressure;BME280_temperature;BME280_humidity;BME280_pressure;Samples;Min_cycle;Max_cycle;Signal;HPM_P1;HPM_P2
2022/06/04 00:00:05;;;;;;;;;;;;;;;;;;5030059;28;19952;-76
2022/06/04 00:02:39;;;;;;;;;;;;;;;;;;5029286;28;20411;-76
2022/06/04 00:05:05;;;;;;;;;;;;;;;;;;5027875;28;19921;-75
2022/06/04 00:07:30;;;;;;;;;;;;;;;;;;5029977;28;19979;-75
2022/06/04 00:15:30;;;;;;;;;;;;;;;;;;5023326;28;19918;-75
2022/06/04 00:17:56;;;;;;;;;;;;;;;;;;5025421;28;20336;-75
2022/06/04 00:20:22;;;;;;;;;;;;;;;;;;5009147;28;20287;-75
2022/06/04 00:22:48;;;;;;;;;;;;;;;;;;5008710;28;19917;-75
2022/06/04 00:25:15;;;;;;;;;;;;;;;;;;5008798;28;19922;-75
2022/06/04 00:27:41;;;;;;;;;;;;;;;;;;5025672;28;19918;-75
2022/06/04 00:30:08;;;;;;;;;;;;;;;;;;5010138;28;19925;-75
2022/06/04 00:32:34;;;;;;;;;;;;;;;;;;5025735;28;19949;-75
2022/06/04 00:35:01;;;;;;;;;;;;;;;;;;5024419;28;20543;-76
2022/06/04 00:37:27;;;;;;;;;;;;;;;;;;5006730;28;19940;-76
2022/06/04 00:39:53;;;;;;;;;;;;;;;;;;5022872;28;19918;-76
2022/06/04 00:42:20;;;;;;;;;;;;;;;;;;5007696;28;19925;-76
2022/06/04 00:44:49;;;;;;;;;;;;;;;;;;5026570;28;19918;-76
2022/06/04 00:47:21;;;;;;;;;;;;;;;;;;5043544;28;19940;-76
2022/06/04 00:49:47;;;;;;;;;;;;;;;;;;5011005;28;19922;-76
2022/06/04 00:52:13;;;;;;;;;;;;;;;;;;5011030;28;19962;-76
2022/06/04 00:54:40;;;;;;;;;;;;;;;;;;5011345;28;19917;-76
2022/06/04 00:57:24;;;;;;;;;;;;;;;;;;5009950;28;19917;-76
2022/06/04 00:59:52;;;;;;;;;;;;;;;;;;5042924;28;19928;-76
2022/06/04 01:02:31;;;;;;;;;;;;;;;;;;5041071;27;20371;-76
2022/06/04 01:05:04;;;;;;;;;;;;;;;;;;5039162;28;19953;-76
2022/06/04 01:07:42;;;;;;;;;;;;;;;;;;5024692;28;20271;-75
2022/06/04 01:10:08;;;;;;;;;;;;;;;;;;5009113;28;20262;-75
2022/06/04 01:12:47;;;;;;;;;;;;;;;;;;5025392;28;19925;-76
2022/06/04 01:15:31;;;;;;;;;;;;;;;;;;5008987;28;19918;-76
2022/06/04 01:17:59;;;;;;;;;;;;;;;;;;4995721;28;20292;-76
2022/06/04 01:20:28;;;;;;;;;;;;;;;;;;5028260;28;19970;-75
2022/06/04 01:23:11;;;;;;;;;;;;;;;;;;5013054;28;19918;-76
2022/06/04 01:25:56;;;;;;;;;;;;;;;;;;5028361;28;19921;-75
2022/06/04 01:28:23;;;;;;;;;;;;;;;;;;5060993;28;20317;-76
2022/06/04 01:30:53;;;;;;;;;;;;;;;;;;5027864;28;19917;-75
2022/06/04 01:33:18;;;;;;;;;;;;;;;;;;5044951;28;20294;-76
2022/06/04 01:35:51;;;;;;;;;;;;;;;;;;5060770;27;19917;-75
2022/06/04 01:38:36;;;;;;;;;;;;;;;;;;5012939;28;19929;-75
2022/06/04 01:41:07;;;;;;;;;;;;;;;;;;5011579;28;19921;-76
2022/06/04 01:43:37;;;;;;;;;;;;;;;;;;5028206;28;19988;-75
2022/06/04 01:46:07;;;;;;;;;;;;;;;;;;5011374;28;20292;-76
2022/06/04 01:48:37;;;;;;;;;;;;;;;;;;5028266;28;20415;-75
2022/06/04 01:51:05;;;;;;;;;;;;;;;;;;5011467;28;19917;-75
2022/06/04 01:53:33;;;;;;;;;;;;;;;;;;5010524;28;19924;-75
2022/06/04 01:56:00;;;;;;;;;;;;;;;;;;5011428;28;19918;-75
2022/06/04 01:58:37;;;;;;;;;;;;;;;;;;5027695;28;20165;-76
2022/06/04 02:01:08;;;;;;;;;;;;;;;;;;5011203;28;19923;-76
2022/06/04 02:03:34;;;;;;;;;;;;;;;;;;5012480;28;19968;-75
2022/06/04 02:06:03;;;;;;;;;;;;;;;;;;5060623;28;19961;-75
2022/06/04 02:08:32;;;;;;;;;;;;;;;;;;5011148;28;19926;-75
2022/06/04 02:11:01;;;;;;;;;;;;;;;;;;5012051;28;19917;-76
2022/06/04 02:13:30;;;;;;;;;;;;;;;;;;5026498;28;20361;-75
2022/06/04 02:15:58;;;;;;;;;;;;;;;;;;5027544;28;20423;-75
2022/06/04 02:18:25;;;;;;;;;;;;;;;;;;5028221;28;19917;-75
2022/06/04 02:20:51;;;;;;;;;;;;;;;;;;5010559;28;19917;-75
2022/06/04 02:23:16;;;;;;;;;;;;;;;;;;5012061;28;19924;-75
2022/06/04 02:25:42;;;;;;;;;;;;;;;;;;5011967;28;19921;-75
2022/06/04 02:28:10;;;;;;;;;;;;;;;;;;5026558;28;20375;-75
2022/06/04 02:30:41;;;;;;;;;;;;;;;;;;5010877;28;19925;-75
2022/06/04 02:33:10;;;;;;;;;;;;;;;;;;5043498;27;20328;-75
2022/06/04 02:35:41;;;;;;;;;;;;;;;;;;5027123;28;19975;-75
2022/06/04 02:38:28;;;;;;;;;;;;;;;;;;5027096;28;20560;-76
2022/06/04 02:41:01;;;;;;;;;;;;;;;;;;5011147;28;20410;-75
2022/06/04 02:43:29;;;;;;;;;;;;;;;;;;5007405;28;19922;-75
2022/06/04 02:46:21;;;;;;;;;;;;;;;;;;5045923;28;20412;-76
2022/06/04 02:49:09;;;;;;;;;;;;;;;;;;5012669;28;19921;-75
2022/06/04 02:51:46;;;;;;;;;;;;;;;;;;5026805;28;19924;-75
2022/06/04 02:54:18;;;;;;;;;;;;;;;;;;5010450;28;20446;-75
2022/06/04 02:56:45;;;;;;;;;;;;;;;;;;5060060;28;19918;-75
2022/06/04 02:59:13;;;;;;;;;;;;;;;;;;5026828;28;19929;-75
2022/06/04 03:01:41;;;;;;;;;;;;;;;;;;5011316;28;20013;-75
2022/06/04 03:04:07;;;;;;;;;;;;;;;;;;5026867;28;19928;-75
2022/06/04 03:06:33;;;;;;;;;;;;;;;;;;5009071;28;20016;-76
2022/06/04 03:09:01;;;;;;;;;;;;;;;;;;5011443;28;20006;-75
2022/06/04 03:11:27;;;;;;;;;;;;;;;;;;5009895;28;19922;-75
2022/06/04 03:13:53;;;;;;;;;;;;;;;;;;5010573;28;20267;-75
2022/06/04 03:16:20;;;;;;;;;;;;;;;;;;5026530;28;19917;-75
2022/06/04 03:18:48;;;;;;;;;;;;;;;;;;5030140;28;19925;-75
2022/06/04 03:21:14;;;;;;;;;;;;;;;;;;5046346;28;20369;-76
2022/06/04 03:23:39;;;;;;;;;;;;;;;;;;5029541;28;20011;-75
2022/06/04 03:26:06;;;;;;;;;;;;;;;;;;5029395;28;20309;-75
2022/06/04 03:28:31;;;;;;;;;;;;;;;;;;5023534;28;19914;-75
2022/06/04 03:30:57;;;;;;;;;;;;;;;;;;5011155;28;19917;-75
2022/06/04 03:33:22;;;;;;;;;;;;;;;;;;5011031;28;19918;-75
2022/06/04 03:35:48;;;;;;;;;;;;;;;;;;5009748;28;19917;-75
2022/06/04 03:38:14;;;;;;;;;;;;;;;;;;4993398;28;19953;-76
2022/06/04 03:40:40;;;;;;;;;;;;;;;;;;5010849;28;19975;-75
2022/06/04 03:43:05;;;;;;;;;;;;;;;;;;5042630;27;19917;-75
2022/06/04 03:45:31;;;;;;;;;;;;;;;;;;5026005;28;19923;-75
2022/06/04 03:47:56;;;;;;;;;;;;;;;;;;5010828;28;19918;-75
2022/06/04 03:50:22;;;;;;;;;;;;;;;;;;5009196;28;19918;-75
2022/06/04 03:52:48;;;;;;;;;;;;;;;;;;5009542;28;19983;-75
2022/06/04 03:55:17;;;;;;;;;;;;;;;;;;5025873;28;19925;-76
2022/06/04 03:57:48;;;;;;;;;;;;;;;;;;5009635;28;19918;-75
2022/06/04 04:00:17;;;;;;;;;;;;;;;;;;5058800;27;19930;-75
2022/06/04 04:02:44;;;;;;;;;;;;;;;;;;5010599;28;19918;-76
2022/06/04 04:05:12;;;;;;;;;;;;;;;;;;5025903;28;20389;-75
2022/06/04 04:07:38;;;;;;;;;;;;;;;;;;5010499;28;19917;-75
2022/06/04 04:10:04;;;;;;;;;;;;;;;;;;5025640;28;19918;-75
2022/06/04 04:12:29;;;;;;;;;;;;;;;;;;5010405;28;19918;-75
2022/06/04 04:14:55;;;;;;;;;;;;;;;;;;5025729;28;20359;-75
2022/06/04 04:17:22;;;;;;;;;;;;;;;;;;5010453;28;19924;-76
2022/06/04 04:19:48;;;;;;;;;;;;;;;;;;5012768;28;19924;-76
2022/06/04 04:22:13;;;;;;;;;;;;;;;;;;5013347;28;19917;-76
2022/06/04 04:24:38;;;;;;;;;;;;;;;;;;5013599;28;19918;-76
2022/06/04 04:27:04;;;;;;;;;;;;;;;;;;5011574;28;19921;-76
2022/06/04 04:29:32;;;;;;;;;;;;;;;;;;5026811;28;19962;-76
2022/06/04 04:32:00;;;;;;;;;;;;;;;;;;5010803;28;19932;-76
2022/06/04 04:34:26;;;;;;;;;;;;;;;;;;5026714;28;19929;-76
2022/06/04 04:36:52;;;;;;;;;;;;;;;;;;5011328;28;19922;-76
2022/06/04 04:39:17;;;;;;;;;;;;;;;;;;5043370;28;19925;-76
2022/06/04 04:41:43;;;;;;;;;;;;;;;;;;5028860;28;19918;-75
2022/06/04 04:44:09;;;;;;;;;;;;;;;;;;5028869;28;19940;-76
2022/06/04 04:46:34;;;;;;;;;;;;;;;;;;5012103;28;20322;-75
2022/06/04 04:48:59;;;;;;;;;;;;;;;;;;5045251;28;19953;-76
2022/06/04 04:51:26;;;;;;;;;;;;;;;;;;5045098;28;19984;-75
2022/06/04 04:53:51;;;;;;;;;;;;;;;;;;5013403;28;20378;-76
2022/06/04 04:56:18;;;;;;;;;;;;;;;;;;5012256;28;19925;-75
2022/06/04 04:58:44;;;;;;;;;;;;;;;;;;5043708;27;19977;-76
2022/06/04 05:01:17;;;;;;;;;;;;;;;;;;5044836;28;19917;-75
2022/06/04 05:03:44;;;;;;;;;;;;;;;;;;5011906;28;19924;-75
2022/06/04 05:06:10;;;;;;;;;;;;;;;;;;5011808;28;20290;-75
2022/06/04 05:08:36;;;;;;;;;;;;;;;;;;5013279;28;19961;-76
2022/06/04 05:11:05;;;;;;;;;;;;;;;;;;5012954;28;19942;-75
2022/06/04 05:13:30;;;;;;;;;;;;;;;;;;5012977;28;19943;-76
2022/06/04 05:15:56;;;;;;;;;;;;;;;;;;5044941;28;19939;-76
2022/06/04 05:18:23;;;;;;;;;;;;;;;;;;5044951;28;19917;-76
2022/06/04 05:20:50;;;;;;;;;;;;;;;;;;5027928;28;20430;-76
2022/06/04 05:23:16;;;;;;;;;;;;;;;;;;5028270;28;19921;-76
2022/06/04 05:25:42;;;;;;;;;;;;;;;;;;5028198;28;20295;-76
2022/06/04 05:28:07;;;;;;;;;;;;;;;;;;5012703;28;19917;-76
2022/06/04 05:30:34;;;;;;;;;;;;;;;;;;5022242;27;19918;-76
2022/06/04 05:33:01;;;;;;;;;;;;;;;;;;4993251;28;19917;-76
2022/06/04 05:35:27;;;;;;;;;;;;;;;;;;5008307;28;20383;-76
2022/06/04 05:37:53;;;;;;;;;;;;;;;;;;5016435;28;20046;-76
2022/06/04 05:40:18;;;;;;;;;;;;;;;;;;4995464;28;20271;-76
2022/06/04 05:42:43;;;;;;;;;;;;;;;;;;5011141;28;19965;-76
2022/06/04 05:45:09;;;;;;;;;;;;;;;;;;5011986;28;20306;-76
2022/06/04 05:47:36;;;;;;;;;;;;;;;;;;4995352;28;19954;-75
2022/06/04 05:50:03;;;;;;;;;;;;;;;;;;5010906;28;20375;-76
2022/06/04 05:52:28;;;;;;;;;;;;;;;;;;5012304;28;19979;-76
2022/06/04 05:54:54;;;;;;;;;;;;;;;;;;5043751;28;20338;-77
2022/06/04 05:57:24;;;;;;;;;;;;;;;;;;5014701;28;19924;-78
2022/06/04 05:59:50;;;;;;;;;;;;;;;;;;5000657;28;19922;-78
2022/06/04 06:02:18;;;;;;;;;;;;;;;;;;5014134;28;19927;-77
2022/06/04 06:04:44;;;;;;;;;;;;;;;;;;5047002;28;20008;-77
2022/06/04 06:07:09;;;;;;;;;;;;;;;;;;5012612;28;19968;-77
2022/06/04 06:09:34;;;;;;;;;;;;;;;;;;5063871;28;19917;-78
2022/06/04 06:12:00;;;;;;;;;;;;;;;;;;5010716;28;19965;-76
2022/06/04 06:14:27;;;;;;;;;;;;;;;;;;5027709;28;19925;-75
2022/06/04 06:16:53;;;;;;;;;;;;;;;;;;5012131;28;19922;-77
2022/06/04 06:19:21;;;;;;;;;;;;;;;;;;5026786;28;19968;-75
2022/06/04 06:21:48;;;;;;;;;;;;;;;;;;5011340;28;19922;-76
2022/06/04 06:24:16;;;;;;;;;;;;;;;;;;5027614;28;19962;-76
2022/06/04 06:26:44;;;;;;;;;;;;;;;;;;5012706;28;19966;-76
2022/06/04 06:29:10;;;;;;;;;;;;;;;;;;5026637;28;19917;-77
2022/06/04 06:31:36;;;;;;;;;;;;;;;;;;5011597;28;19921;-77
2022/06/04 06:34:01;;;;;;;;;;;;;;;;;;5011097;28;20255;-77
2022/06/04 06:36:28;;;;;;;;;;;;;;;;;;5044669;28;20340;-78
2022/06/04 06:38:54;;;;;;;;;;;;;;;;;;5029162;28;19917;-77
2022/06/04 06:41:21;;;;;;;;;;;;;;;;;;5044478;28;20373;-77
2022/06/04 06:43:49;;;;;;;;;;;;;;;;;;5030551;28;19921;-77
2022/06/04 06:46:27;;;;;;;;;;;;;;;;;;5026242;28;19926;-77
2022/06/04 06:49:03;;;;;;;;;;;;;;;;;;4993605;28;19922;-77
2022/06/04 06:51:32;;;;;;;;;;;;;;;;;;4993881;28;19918;-77
2022/06/04 06:53:57;;;;;;;;;;;;;;;;;;4994585;28;20024;-77
2022/06/04 06:56:25;;;;;;;;;;;;;;;;;;4995339;28;20398;-77
2022/06/04 06:58:50;;;;;;;;;;;;;;;;;;5011329;28;20016;-77
2022/06/04 07:01:16;;;;;;;;;;;;;;;;;;4995800;28;19968;-77
2022/06/04 07:03:43;;;;;;;;;;;;;;;;;;5026094;28;19944;-77
2022/06/04 07:06:11;;;;;;;;;;;;;;;;;;4995117;28;19922;-77
2022/06/04 07:08:39;;;;;;;;;;;;;;;;;;5027626;28;19939;-78
2022/06/04 07:11:05;;;;;;;;;;;;;;;;;;5011880;28;20426;-77
2022/06/04 07:13:34;;;;;;;;;;;;;;;;;;5011104;28;19918;-78
2022/06/04 07:16:00;;;;;;;;;;;;;;;;;;5027774;28;19918;-77
2022/06/04 07:18:25;;;;;;;;;;;;;;;;;;5028220;28;19922;-77
2022/06/04 07:20:51;;;;;;;;;;;;;;;;;;5028672;28;19926;-77
2022/06/04 07:23:18;;;;;;;;;;;;;;;;;;4997185;28;20025;-77
2022/06/04 07:25:44;;;;;;;;;;;;;;;;;;5012525;28;19922;-78
2022/06/04 07:28:12;;;;;;;;;;;;;;;;;;5011872;28;20371;-77
2022/06/04 07:30:39;;;;;;;;;;;;;;;;;;5031531;28;19917;-77
2022/06/04 07:33:07;;;;;;;;;;;;;;;;;;5031430;28;19943;-78
2022/06/04 07:35:32;;;;;;;;;;;;;;;;;;5015733;28;19920;-77
2022/06/04 07:37:58;;;;;;;;;;;;;;;;;;5015166;28;19941;-77
2022/06/04 07:40:23;;;;;;;;;;;;;;;;;;5014501;28;19918;-77
2022/06/04 07:42:49;;;;;;;;;;;;;;;;;;5014849;28;19917;-77
2022/06/04 07:45:14;;;;;;;;;;;;;;;;;;5046623;28;19926;-77
2022/06/04 07:47:41;;;;;;;;;;;;;;;;;;5013319;28;19924;-77
2022/06/04 07:50:07;;;;;;;;;;;;;;;;;;5009722;28;19957;-76
2022/06/04 07:52:34;;;;;;;;;;;;;;;;;;5027320;28;19924;-76
2022/06/04 07:55:00;;;;;;;;;;;;;;;;;;5029188;28;20367;-76
2022/06/04 07:57:26;;;;;;;;;;;;;;;;;;5012963;28;19917;-76
2022/06/04 07:59:52;;;;;;;;;;;;;;;;;;5029261;28;19925;-76
2022/06/04 08:02:17;;;;;;;;;;;;;;;;;;5030819;28;20435;-76
2022/06/04 08:04:42;;;;;;;;;;;;;;;;;;5032517;28;19917;-76
2022/06/04 08:07:08;;;;;;;;;;;;;;;;;;5065313;28;19929;-76
2022/06/04 08:09:36;;;;;;;;;;;;;;;;;;5032595;28;19917;-76
2022/06/04 08:12:04;;;;;;;;;;;;;;;;;;5016068;28;19924;-77
2022/06/04 08:14:29;;;;;;;;;;;;;;;;;;5016346;28;19917;-76
2022/06/04 08:16:57;;;;;;;;;;;;;;;;;;5032413;28;20008;-77
2022/06/04 08:19:24;;;;;;;;;;;;;;;;;;5045036;28;19966;-76
2022/06/04 08:21:52;;;;;;;;;;;;;;;;;;5029214;28;19921;-76
2022/06/04 08:24:18;;;;;;;;;;;;;;;;;;5013960;28;19964;-76
2022/06/04 08:26:45;;;;;;;;;;;;;;;;;;5045764;28;20376;-76
2022/06/04 08:29:11;;;;;;;;;;;;;;;;;;5029108;28;20367;-76
2022/06/04 08:31:37;;;;;;;;;;;;;;;;;;5028640;28;19918;-76
2022/06/04 08:34:03;;;;;;;;;;;;;;;;;;5012714;28;19917;-76
2022/06/04 08:36:29;;;;;;;;;;;;;;;;;;5012488;28;20008;-76
2022/06/04 08:38:55;;;;;;;;;;;;;;;;;;5012611;28;20000;-76
2022/06/04 08:41:26;;;;;;;;;;;;;;;;;;5015018;28;19924;-78
2022/06/04 08:44:02;;;;;;;;;;;;;;;;;;5035424;28;20386;-78
2022/06/04 08:46:34;;;;;;;;;;;;;;;;;;5019715;28;19921;-79
2022/06/04 08:49:02;;;;;;;;;;;;;;;;;;5038173;28;19956;-83
2022/06/04 08:51:29;;;;;;;;;;;;;;;;;;5020398;28;19952;-78
2022/06/04 08:53:57;;;;;;;;;;;;;;;;;;5067338;28;19941;-79
2022/06/04 08:59:09;;;;;;;;;;;;;;;;;;5046612;28;20366;-78
2022/06/04 09:01:37;;;;;;;;;;;;;;;;;;5015851;28;19978;-79
2022/06/04 09:04:19;;;;;;;;;;;;;;;;;;5068866;28;20341;-79
2022/06/04 09:06:57;;;;;;;;;;;;;;;;;;5033170;28;19928;-82
2022/06/04 09:09:35;;;;;;;;;;;;;;;;;;5032554;28;19924;-79
2022/06/04 09:12:08;;;;;;;;;;;;;;;;;;5032590;28;19925;-82
2022/06/04 09:14:36;;;;;;;;;;;;;;;;;;5039142;28;20345;-80
2022/06/04 09:17:01;;;;;;;;;;;;;;;;;;5055706;28;20462;-83
2022/06/04 09:19:30;;;;;;;;;;;;;;;;;;5035870;28;19953;-80
2022/06/04 09:21:57;;;;;;;;;;;;;;;;;;5034117;28;19917;-81
2022/06/04 09:24:25;;;;;;;;;;;;;;;;;;5019702;28;19925;-82
2022/06/04 09:26:56;;;;;;;;;;;;;;;;;;5008295;28;19929;-82
2022/06/04 09:29:48;;;;;;;;;;;;;;;;;;5027948;28;19918;-81
2022/06/04 09:32:44;;;;;;;;;;;;;;;;;;5010866;28;20574;-80
2022/06/04 09:35:10;;;;;;;;;;;;;;;;;;5056555;27;19975;-82
2022/06/04 09:37:42;;;;;;;;;;;;;;;;;;5013478;28;19925;-81
2022/06/04 09:40:17;;;;;;;;;;;;;;;;;;5033178;28;19921;-80
2022/06/04 09:42:43;;;;;;;;;;;;;;;;;;5021225;28;19957;-81
2022/06/04 09:45:31;;;;;;;;;;;;;;;;;;5007337;28;19918;-81
2022/06/04 09:47:57;;;;;;;;;;;;;;;;;;5020359;28;19922;-81
2022/06/04 09:50:26;;;;;;;;;;;;;;;;;;5000814;28;19928;-80
2022/06/04 09:53:16;;;;;;;;;;;;;;;;;;5029468;28;19932;-79
2022/06/04 09:56:04;;;;;;;;;;;;;;;;;;5004660;28;20028;-78
2022/06/04 09:58:30;;;;;;;;;;;;;;;;;;5048938;28;19921;-79
2022/06/04 10:00:57;;;;;;;;;;;;;;;;;;5008339;28;19918;-78
2022/06/04 10:03:23;;;;;;;;;;;;;;;;;;4994392;28;20379;-77
2022/06/04 10:05:48;;;;;;;;;;;;;;;;;;5018971;28;20307;-78
2022/06/04 10:08:14;;;;;;;;;;;;;;;;;;5019069;28;19953;-78
2022/06/04 10:10:42;;;;;;;;;;;;;;;;;;5016932;28;20560;-78
2022/06/04 10:15:57;;;;;;;;;;;;;;;;;;5012285;28;19918;-78
2022/06/04 10:18:32;;;;;;;;;;;;;;;;;;5000079;28;19917;-77
2022/06/04 10:21:17;;;;;;;;;;;;;;;;;;5014790;28;20367;-77
2022/06/04 10:23:45;;;;;;;;;;;;;;;;;;5002541;28;19923;-78
2022/06/04 10:26:38;;;;;;;;;;;;;;;;;;5019712;28;20273;-78
2022/06/04 10:29:26;;;;;;;;;;;;;;;;;;5005982;28;19971;-79
2022/06/04 10:32:09;;;;;;;;;;;;;;;;;;5019538;28;20008;-78
2022/06/04 10:34:51;;;;;;;;;;;;;;;;;;5038880;28;19918;-78
2022/06/04 10:37:19;;;;;;;;;;;;;;;;;;5022147;28;19922;-78
2022/06/04 10:39:57;;;;;;;;;;;;;;;;;;5064573;28;19939;-78
2022/06/04 10:42:43;;;;;;;;;;;;;;;;;;5019514;28;19918;-78
2022/06/04 10:45:16;;;;;;;;;;;;;;;;;;5030790;28;19984;-79
2022/06/04 10:47:50;;;;;;;;;;;;;;;;;;5020450;28;20404;-79
2022/06/04 10:50:27;;;;;;;;;;;;;;;;;;5002004;28;19917;-78
2022/06/04 10:52:56;;;;;;;;;;;;;;;;;;5016691;28;19973;-78
2022/06/04 10:55:26;;;;;;;;;;;;;;;;;;5002150;28;20383;-78
2022/06/04 10:58:11;;;;;;;;;;;;;;;;;;5001560;28;19974;-78
2022/06/04 11:00:48;;;;;;;;;;;;;;;;;;4996594;28;19921;-78
2022/06/04 11:03:19;;;;;;;;;;;;;;;;;;5045608;28;19917;-79
2022/06/04 11:05:51;;;;;;;;;;;;;;;;;;5004516;28;19930;-79
2022/06/04 11:08:19;;;;;;;;;;;;;;;;;;5021483;28;19922;-79
2022/06/04 11:10:52;;;;;;;;;;;;;;;;;;5004326;28;19971;-79
2022/06/04 11:13:23;;;;;;;;;;;;;;;;;;5018716;28;19917;-78
2022/06/04 11:15:52;;;;;;;;;;;;;;;;;;5017457;28;19917;-78
2022/06/04 11:18:24;;;;;;;;;;;;;;;;;;5037951;28;19918;-79
2022/06/04 11:20:52;;;;;;;;;;;;;;;;;;5039856;28;19918;-78
2022/06/04 11:23:24;;;;;;;;;;;;;;;;;;5055535;28;19925;-78
2022/06/04 11:25:52;;;;;;;;;;;;;;;;;;5055204;28;19929;-78
2022/06/04 11:28:26;;;;;;;;;;;;;;;;;;5005154;28;20329;-78
2022/06/04 11:31:05;;;;;;;;;;;;;;;;;;5006336;28;19922;-78
2022/06/04 11:33:41;;;;;;;;;;;;;;;;;;5004249;28;19918;-79
2022/06/04 11:36:06;;;;;;;;;;;;;;;;;;5003550;28;19921;-78
2022/06/04 11:38:42;;;;;;;;;;;;;;;;;;5013839;28;19917;-76
2022/06/04 11:41:21;;;;;;;;;;;;;;;;;;4992888;28;19918;-77
2022/06/04 11:44:05;;;;;;;;;;;;;;;;;;5010153;28;20264;-77
2022/06/04 11:46:43;;;;;;;;;;;;;;;;;;5016528;28;20264;-76
2022/06/04 11:49:16;;;;;;;;;;;;;;;;;;5045212;28;19917;-76
2022/06/04 11:51:46;;;;;;;;;;;;;;;;;;5011699;28;19918;-76
2022/06/04 11:54:21;;;;;;;;;;;;;;;;;;5006725;28;20375;-76
2022/06/04 11:56:49;;;;;;;;;;;;;;;;;;5008818;28;19922;-76
2022/06/04 11:59:15;;;;;;;;;;;;;;;;;;5009084;28;20379;-76
2022/06/04 12:01:47;;;;;;;;;;;;;;;;;;4993387;28;20099;-77
2022/06/04 12:04:25;;;;;;;;;;;;;;;;;;5028850;28;19960;-77
2022/06/04 12:06:55;;;;;;;;;;;;;;;;;;5012025;28;19928;-77
2022/06/04 12:09:21;;;;;;;;;;;;;;;;;;5030715;28;19960;-78
2022/06/04 12:11:52;;;;;;;;;;;;;;;;;;5019223;28;19921;-78
2022/06/04 12:14:17;;;;;;;;;;;;;;;;;;5046602;28;19922;-77
2022/06/04 12:16:42;;;;;;;;;;;;;;;;;;4995684;28;19995;-77
2022/06/04 12:25:04;;;;;;;;;;;;;;;;;;5010632;28;19921;-75
2022/06/04 12:27:30;;;;;;;;;;;;;;;;;;4993149;28;19964;-76
2022/06/04 12:29:57;;;;;;;;;;;;;;;;;;4997270;28;19917;-77
2022/06/04 12:32:28;;;;;;;;;;;;;;;;;;4991247;28;19918;-77
2022/06/04 12:35:03;;;;;;;;;;;;;;;;;;4991038;28;19917;-77
2022/06/04 12:37:43;;;;;;;;;;;;;;;;;;5038828;28;19924;-77
2022/06/04 12:40:23;;;;;;;;;;;;;;;;;;5009268;28;19954;-77
2022/06/04 12:43:07;;;;;;;;;;;;;;;;;;4993072;28;19918;-77
2022/06/04 12:45:33;;;;;;;;;;;;;;;;;;5041167;28;19926;-77
2022/06/04 12:48:00;;;;;;;;;;;;;;;;;;5028063;28;19914;-77
2022/06/04 12:50:36;;;;;;;;;;;;;;;;;;5028910;28;19944;-77
2022/06/04 12:53:06;;;;;;;;;;;;;;;;;;5029073;28;19922;-77
2022/06/04 12:55:37;;;;;;;;;;;;;;;;;;5013567;28;19956;-77
2022/06/04 12:58:21;;;;;;;;;;;;;;;;;;5029507;28;19917;-77
2022/06/04 13:00:54;;;;;;;;;;;;;;;;;;5034954;27;19934;-77
2022/06/04 13:03:28;;;;;;;;;;;;;;;;;;5033488;28;19917;-77
2022/06/04 13:06:17;;;;;;;;;;;;;;;;;;5066177;28;19921;-77
2022/06/04 13:08:42;;;;;;;;;;;;;;;;;;5010846;28;19955;-77
2022/06/04 13:11:08;;;;;;;;;;;;;;;;;;5033014;28;19917;-77
2022/06/04 13:13:38;;;;;;;;;;;;;;;;;;5017411;28;19925;-77
2022/06/04 13:16:17;;;;;;;;;;;;;;;;;;5032671;28;19924;-77
2022/06/04 13:18:43;;;;;;;;;;;;;;;;;;5031850;28;19917;-77
2022/06/04 13:21:15;;;;;;;;;;;;;;;;;;5048549;28;19913;-77
2022/06/04 13:23:46;;;;;;;;;;;;;;;;;;5047063;28;19917;-77
2022/06/04 13:26:12;;;;;;;;;;;;;;;;;;5013569;28;19921;-77
2022/06/04 13:28:40;;;;;;;;;;;;;;;;;;4995658;28;20405;-77
2022/06/04 13:31:15;;;;;;;;;;;;;;;;;;5013188;28;19980;-77
2022/06/04 13:33:40;;;;;;;;;;;;;;;;;;5013764;28;20298;-77
2022/06/04 13:36:06;;;;;;;;;;;;;;;;;;5013218;28;20020;-77
2022/06/04 13:38:37;;;;;;;;;;;;;;;;;;4995877;28;19921;-77
2022/06/04 13:41:05;;;;;;;;;;;;;;;;;;5011500;28;19917;-77
2022/06/04 13:43:38;;;;;;;;;;;;;;;;;;4995509;28;20408;-77
2022/06/04 13:46:05;;;;;;;;;;;;;;;;;;4991631;28;19925;-77
2022/06/04 13:48:30;;;;;;;;;;;;;;;;;;4992151;28;19956;-77
2022/06/04 13:50:56;;;;;;;;;;;;;;;;;;5007179;28;19956;-77
2022/06/04 13:53:24;;;;;;;;;;;;;;;;;;4991596;28;19918;-77
2022/06/04 13:55:52;;;;;;;;;;;;;;;;;;4991368;28;20021;-77
2022/06/04 13:58:23;;;;;;;;;;;;;;;;;;5007851;28;20337;-77
2022/06/04 14:00:51;;;;;;;;;;;;;;;;;;5000450;28;19917;-77
2022/06/04 14:03:21;;;;;;;;;;;;;;;;;;5012553;28;19918;-77
2022/06/04 14:05:51;;;;;;;;;;;;;;;;;;5027760;28;19922;-77
2022/06/04 14:08:18;;;;;;;;;;;;;;;;;;5011827;28;20374;-77
2022/06/04 14:11:06;;;;;;;;;;;;;;;;;;5012541;28;19918;-77
2022/06/04 14:13:47;;;;;;;;;;;;;;;;;;5012632;28;19925;-76
2022/06/04 14:16:28;;;;;;;;;;;;;;;;;;5012106;28;19917;-76
2022/06/04 14:19:09;;;;;;;;;;;;;;;;;;5042698;27;19966;-77
2022/06/04 14:21:40;;;;;;;;;;;;;;;;;;5010841;28;20356;-77
2022/06/04 14:24:05;;;;;;;;;;;;;;;;;;5012900;28;19922;-76
2022/06/04 14:26:36;;;;;;;;;;;;;;;;;;5011749;28;20336;-77
2022/06/04 14:29:16;;;;;;;;;;;;;;;;;;4993816;28;19918;-77
2022/06/04 14:31:41;;;;;;;;;;;;;;;;;;5008890;28;19918;-77
2022/06/04 14:34:09;;;;;;;;;;;;;;;;;;5024414;28;19918;-76
2022/06/04 14:36:44;;;;;;;;;;;;;;;;;;4992423;28;19918;-76
2022/06/04 14:39:09;;;;;;;;;;;;;;;;;;5006692;28;20051;-76
2022/06/04 14:41:35;;;;;;;;;;;;;;;;;;4991085;28;19945;-76
2022/06/04 14:44:13;;;;;;;;;;;;;;;;;;4993504;28;19925;-76
2022/06/04 14:46:51;;;;;;;;;;;;;;;;;;5059824;28;20403;-76
2022/06/04 14:49:33;;;;;;;;;;;;;;;;;;5043920;28;19922;-76
2022/06/04 14:52:10;;;;;;;;;;;;;;;;;;5012958;28;20298;-77
2022/06/04 14:54:36;;;;;;;;;;;;;;;;;;5011315;28;19917;-77
2022/06/04 14:57:02;;;;;;;;;;;;;;;;;;5012723;28;19942;-76
2022/06/04 14:59:46;;;;;;;;;;;;;;;;;;5043867;28;19921;-76
2022/06/04 15:02:29;;;;;;;;;;;;;;;;;;5039475;27;19918;-76
2022/06/04 15:05:00;;;;;;;;;;;;;;;;;;4991506;28;20333;-76
2022/06/04 15:07:35;;;;;;;;;;;;;;;;;;5039594;27;19982;-77
2022/06/04 15:10:13;;;;;;;;;;;;;;;;;;5045717;28;19917;-77
2022/06/04 15:12:51;;;;;;;;;;;;;;;;;;5029581;28;19918;-77
2022/06/04 15:15:31;;;;;;;;;;;;;;;;;;5014169;28;19924;-77
2022/06/04 15:18:18;;;;;;;;;;;;;;;;;;5028368;28;20264;-77
2022/06/04 15:20:50;;;;;;;;;;;;;;;;;;5062122;28;19988;-77
2022/06/04 15:23:28;;;;;;;;;;;;;;;;;;5013511;28;19917;-77
2022/06/04 15:26:02;;;;;;;;;;;;;;;;;;5046045;28;19928;-78
2022/06/04 15:34:05;;;;;;;;;;;;;;;;;;5061568;27;19972;-78
2022/06/04 15:36:34;;;;;;;;;;;;;;;;;;5071740;27;19968;-78
2022/06/04 15:39:10;;;;;;;;;;;;;;;;;;5039415;28;19917;-78
2022/06/04 15:41:38;;;;;;;;;;;;;;;;;;5038129;28;19917;-79
2022/06/04 15:44:07;;;;;;;;;;;;;;;;;;5022575;28;19923;-78
2022/06/04 15:46:38;;;;;;;;;;;;;;;;;;5070245;27;20271;-78
2022/06/04 15:49:16;;;;;;;;;;;;;;;;;;5070925;27;20008;-78
2022/06/04 15:57:38;;;;;;;;;;;;;;;;;;5038362;28;20764;-78
2022/06/04 16:00:35;;;;;;;;;;;;;;;;;;5019261;28;19921;-78
2022/06/04 16:03:11;;;;;;;;;;;;;;;;;;5027657;28;19966;-78
2022/06/04 16:05:38;;;;;;;;;;;;;;;;;;5029804;28;19926;-78
2022/06/04 16:08:07;;;;;;;;;;;;;;;;;;5032689;28;19918;-78
2022/06/04 16:10:36;;;;;;;;;;;;;;;;;;5033199;28;19918;-78
2022/06/04 16:13:24;;;;;;;;;;;;;;;;;;5067033;28;19939;-78
2022/06/04 16:15:50;;;;;;;;;;;;;;;;;;5048719;28;20394;-78
2022/06/04 16:18:15;;;;;;;;;;;;;;;;;;5054418;28;19918;-78
2022/06/04 16:21:01;;;;;;;;;;;;;;;;;;5035265;28;19924;-78
2022/06/04 16:23:56;;;;;;;;;;;;;;;;;;5009190;28;19921;-78
2022/06/04 16:26:22;;;;;;;;;;;;;;;;;;5016053;28;19922;-78
2022/06/04 16:28:55;;;;;;;;;;;;;;;;;;5034541;28;20382;-78
2022/06/04 16:31:25;;;;;;;;;;;;;;;;;;5017851;28;19917;-78
2022/06/04 16:33:54;;;;;;;;;;;;;;;;;;5003005;28;19925;-78
2022/06/04 16:36:21;;;;;;;;;;;;;;;;;;5002190;28;19925;-78
2022/06/04 16:38:51;;;;;;;;;;;;;;;;;;5018665;28;19917;-78
2022/06/04 16:44:13;;;;;;;;;;;;;;;;;;5018316;28;19917;-78
2022/06/04 16:46:43;;;;;;;;;;;;;;;;;;5018437;28;19922;-77
2022/06/04 16:52:01;;;;;;;;;;;;;;;;;;5017943;28;19928;-78
2022/06/04 16:54:29;;;;;;;;;;;;;;;;;;5033495;28;19971;-78
2022/06/04 16:56:57;;;;;;;;;;;;;;;;;;5017215;28;19917;-78
2022/06/04 16:59:28;;;;;;;;;;;;;;;;;;5033967;28;19921;-78
2022/06/04 17:02:13;;;;;;;;;;;;;;;;;;5003336;28;19918;-78
2022/06/04 17:04:39;;;;;;;;;;;;;;;;;;5030709;28;19917;-78
2022/06/04 17:07:26;;;;;;;;;;;;;;;;;;5029788;28;19961;-78
2022/06/04 17:10:11;;;;;;;;;;;;;;;;;;5014100;28;19918;-78
2022/06/04 17:12:55;;;;;;;;;;;;;;;;;;5047379;28;19972;-78
2022/06/04 17:15:27;;;;;;;;;;;;;;;;;;5046846;28;19918;-78
2022/06/04 17:18:11;;;;;;;;;;;;;;;;;;5030449;28;19925;-78
2022/06/04 17:20:43;;;;;;;;;;;;;;;;;;5046691;28;19922;-78
2022/06/04 17:23:15;;;;;;;;;;;;;;;;;;5030375;28;19971;-78
2022/06/04 17:25:59;;;;;;;;;;;;;;;;;;5011679;28;19972;-78
2022/06/04 17:28:30;;;;;;;;;;;;;;;;;;5013769;28;20330;-78
2022/06/04 17:31:01;;;;;;;;;;;;;;;;;;5045935;28;19940;-78
2022/06/04 17:33:36;;;;;;;;;;;;;;;;;;5047003;28;19926;-78
2022/06/04 17:36:08;;;;;;;;;;;;;;;;;;5043856;27;19943;-78
2022/06/04 17:38:41;;;;;;;;;;;;;;;;;;5000994;28;19921;-78
2022/06/04 17:41:14;;;;;;;;;;;;;;;;;;5016653;28;20445;-78